sensor_id;sensor_type;location;lat;lon;timestamp;temperature;humidity
50570;DHT22;36525;49.398;7.614;2023-10-31T00:02:09;10.40;99.90
50570;DHT22;36525;49.398;7.614;2023-10-31T00:04:36;10.40;99.90
50570;DHT22;36525;49.398;7.614;2023-10-31T00:07:04;10.40;99.90
50570;DHT22;36525;49.398;7.614;2023-10-31T00:09:31;10.30;99.90
50570;DHT22;36525;49.398;7.614;2023-10-31T00:11:58;10.30;99.90
50570;DHT22;36525;49.398;7.614;2023-10-31T00:14:25;10.10;99.90
50570;DHT22;36525;49.398;7.614;2023-10-31T00:16:57;10.20;99.90
50570;DHT22;36525;49.398;7.614;2023-10-31T00:19:25;10.20;99.90
50570;DHT22;36525;49.398;7.614;2023-10-31T00:21:52;10.20;99.90
50570;DHT22;36525;49.398;7.614;2023-10-31T00:24:19;10.20;99.90
50570;DHT22;36525;49.398;7.614;2023-10-31T00:26:46;10.20;99.90
50570;DHT22;36525;49.398;7.614;2023-10-31T00:29:14;10.20;99.90
50570;DHT22;36525;49.398;7.614;2023-10-31T00:31:41;10.20;99.90
50570;DHT22;36525;49.398;7.614;2023-10-31T00:34:08;10.20;99.90
50570;DHT22;36525;49.398;7.614;2023-10-31T00:36:36;10.20;99.90
50570;DHT22;36525;49.398;7.614;2023-10-31T00:39:04;10.10;99.90
50570;DHT22;36525;49.398;7.614;2023-10-31T00:41:31;10.10;99.90
50570;DHT22;36525;49.398;7.614;2023-10-31T00:43:58;10.00;99.90
50570;DHT22;36525;49.398;7.614;2023-10-31T00:46:25;9.90;99.90
50570;DHT22;36525;49.398;7.614;2023-10-31T00:48:52;9.90;99.90
50570;DHT22;36525;49.398;7.614;2023-10-31T00:51:19;9.90;99.90
50570;DHT22;36525;49.398;7.614;2023-10-31T00:53:46;9.90;99.90
50570;DHT22;36525;49.398;7.614;2023-10-31T00:56:13;9.90;99.90
50570;DHT22;36525;49.398;7.614;2023-10-31T00:58:40;9.90;99.90
50570;DHT22;36525;49.398;7.614;2023-10-31T01:01:07;9.90;99.90
50570;DHT22;36525;49.398;7.614;2023-10-31T01:03:34;9.80;99.90
50570;DHT22;36525;49.398;7.614;2023-10-31T01:06:01;9.80;99.90
50570;DHT22;36525;49.398;7.614;2023-10-31T01:08:28;9.80;99.90
50570;DHT22;36525;49.398;7.614;2023-10-31T01:10:56;9.80;99.90
50570;DHT22;36525;49.398;7.614;2023-10-31T01:13:23;9.80;99.90
50570;DHT22;36525;49.398;7.614;2023-10-31T01:15:50;9.90;99.90
50570;DHT22;36525;49.398;7.614;2023-10-31T01:18:17;9.90;99.90
50570;DHT22;36525;49.398;7.614;2023-10-31T01:20:44;9.90;99.90
50570;DHT22;36525;49.398;7.614;2023-10-31T01:23:11;9.90;99.90
50570;DHT22;36525;49.398;7.614;2023-10-31T01:25:38;9.90;99.90
50570;DHT22;36525;49.398;7.614;2023-10-31T01:28:05;9.90;99.90
50570;DHT22;36525;49.398;7.614;2023-10-31T01:30:32;10.00;99.90
50570;DHT22;36525;49.398;7.614;2023-10-31T01:32:59;10.00;99.90
50570;DHT22;36525;49.398;7.614;2023-10-31T01:35:28;10.00;99.90
50570;DHT22;36525;49.398;7.614;2023-10-31T01:37:55;10.00;99.90
50570;DHT22;36525;49.398;7.614;2023-10-31T01:40:22;10.00;99.90
50570;DHT22;36525;49.398;7.614;2023-10-31T01:42:49;10.00;99.90
50570;DHT22;36525;49.398;7.614;2023-10-31T01:45:16;10.10;99.90
50570;DHT22;36525;49.398;7.614;2023-10-31T01:47:43;10.00;99.90
50570;DHT22;36525;49.398;7.614;2023-10-31T01:50:13;10.00;99.90
50570;DHT22;36525;49.398;7.614;2023-10-31T01:52:40;10.00;99.90
50570;DHT22;36525;49.398;7.614;2023-10-31T01:55:08;10.00;99.90
50570;DHT22;36525;49.398;7.614;2023-10-31T01:57:35;10.00;99.90
50570;DHT22;36525;49.398;7.614;2023-10-31T02:00:03;10.00;99.90
50570;DHT22;36525;49.398;7.614;2023-10-31T02:02:32;10.00;99.90
50570;DHT22;36525;49.398;7.614;2023-10-31T02:05:00;10.00;99.90
50570;DHT22;36525;49.398;7.614;2023-10-31T02:07:27;10.00;99.90
50570;DHT22;36525;49.398;7.614;2023-10-31T02:09:54;9.90;99.90
50570;DHT22;36525;49.398;7.614;2023-10-31T02:12:30;9.90;99.90
50570;DHT22;36525;49.398;7.614;2023-10-31T02:14:59;9.90;99.90
50570;DHT22;36525;49.398;7.614;2023-10-31T02:17:26;9.90;99.90
50570;DHT22;36525;49.398;7.614;2023-10-31T02:19:53;9.90;99.90
50570;DHT22;36525;49.398;7.614;2023-10-31T02:22:21;9.90;99.90
50570;DHT22;36525;49.398;7.614;2023-10-31T02:24:49;10.00;99.90
50570;DHT22;36525;49.398;7.614;2023-10-31T02:27:16;9.90;99.90
50570;DHT22;36525;49.398;7.614;2023-10-31T02:29:43;9.90;99.90
50570;DHT22;36525;49.398;7.614;2023-10-31T02:32:10;9.90;99.90
50570;DHT22;36525;49.398;7.614;2023-10-31T02:34:37;9.90;99.90
50570;DHT22;36525;49.398;7.614;2023-10-31T02:37:04;9.80;99.90
50570;DHT22;36525;49.398;7.614;2023-10-31T02:39:33;9.90;99.90
50570;DHT22;36525;49.398;7.614;2023-10-31T02:42:00;9.80;99.90
50570;DHT22;36525;49.398;7.614;2023-10-31T02:44:27;9.80;99.90
50570;DHT22;36525;49.398;7.614;2023-10-31T02:46:54;9.90;99.90
50570;DHT22;36525;49.398;7.614;2023-10-31T02:49:22;9.90;99.90
50570;DHT22;36525;49.398;7.614;2023-10-31T02:51:49;9.80;99.90
50570;DHT22;36525;49.398;7.614;2023-10-31T02:54:16;9.90;99.90
50570;DHT22;36525;49.398;7.614;2023-10-31T02:56:43;9.90;99.90
50570;DHT22;36525;49.398;7.614;2023-10-31T02:59:10;9.90;99.90
50570;DHT22;36525;49.398;7.614;2023-10-31T03:01:38;9.90;99.90
50570;DHT22;36525;49.398;7.614;2023-10-31T03:04:06;9.90;99.90
50570;DHT22;36525;49.398;7.614;2023-10-31T03:06:33;9.90;99.90
50570;DHT22;36525;49.398;7.614;2023-10-31T03:09:00;9.90;99.90
50570;DHT22;36525;49.398;7.614;2023-10-31T03:11:27;9.80;99.90
50570;DHT22;36525;49.398;7.614;2023-10-31T03:13:54;9.90;99.90
50570;DHT22;36525;49.398;7.614;2023-10-31T03:16:23;9.80;99.90
50570;DHT22;36525;49.398;7.614;2023-10-31T03:18:51;9.90;99.90
50570;DHT22;36525;49.398;7.614;2023-10-31T03:21:18;9.80;99.90
50570;DHT22;36525;49.398;7.614;2023-10-31T03:23:49;9.80;99.90
50570;DHT22;36525;49.398;7.614;2023-10-31T03:26:16;9.80;99.90
50570;DHT22;36525;49.398;7.614;2023-10-31T03:28:43;9.80;99.90
50570;DHT22;36525;49.398;7.614;2023-10-31T03:31:11;9.80;99.90
50570;DHT22;36525;49.398;7.614;2023-10-31T03:33:39;9.80;99.90
50570;DHT22;36525;49.398;7.614;2023-10-31T03:36:07;9.80;99.90
50570;DHT22;36525;49.398;7.614;2023-10-31T03:38:35;9.80;99.90
50570;DHT22;36525;49.398;7.614;2023-10-31T03:41:03;9.80;99.90
50570;DHT22;36525;49.398;7.614;2023-10-31T03:43:30;9.80;99.90
50570;DHT22;36525;49.398;7.614;2023-10-31T03:45:57;9.80;99.90
50570;DHT22;36525;49.398;7.614;2023-10-31T03:48:24;9.80;99.90
50570;DHT22;36525;49.398;7.614;2023-10-31T03:50:51;9.80;99.90
50570;DHT22;36525;49.398;7.614;2023-10-31T03:53:18;9.70;99.90
50570;DHT22;36525;49.398;7.614;2023-10-31T03:55:45;9.70;99.90
50570;DHT22;36525;49.398;7.614;2023-10-31T03:58:12;9.80;99.90
50570;DHT22;36525;49.398;7.614;2023-10-31T04:00:39;9.70;99.90
50570;DHT22;36525;49.398;7.614;2023-10-31T04:03:10;9.70;99.90
50570;DHT22;36525;49.398;7.614;2023-10-31T04:05:37;9.70;99.90
50570;DHT22;36525;49.398;7.614;2023-10-31T04:08:04;9.60;99.90
50570;DHT22;36525;49.398;7.614;2023-10-31T04:10:31;9.70;99.90
50570;DHT22;36525;49.398;7.614;2023-10-31T04:12:58;9.70;99.90
50570;DHT22;36525;49.398;7.614;2023-10-31T04:15:25;9.70;99.90
50570;DHT22;36525;49.398;7.614;2023-10-31T04:17:52;9.60;99.90
50570;DHT22;36525;49.398;7.614;2023-10-31T04:20:19;9.70;99.90
50570;DHT22;36525;49.398;7.614;2023-10-31T04:22:46;9.70;99.90
50570;DHT22;36525;49.398;7.614;2023-10-31T04:25:14;9.70;99.90
50570;DHT22;36525;49.398;7.614;2023-10-31T04:27:43;9.70;99.90
50570;DHT22;36525;49.398;7.614;2023-10-31T04:30:10;9.70;99.90
50570;DHT22;36525;49.398;7.614;2023-10-31T04:32:40;9.70;99.90
50570;DHT22;36525;49.398;7.614;2023-10-31T04:35:07;9.70;99.90
50570;DHT22;36525;49.398;7.614;2023-10-31T04:37:35;9.70;99.90
50570;DHT22;36525;49.398;7.614;2023-10-31T04:40:02;9.70;99.90
50570;DHT22;36525;49.398;7.614;2023-10-31T04:42:29;9.70;99.90
50570;DHT22;36525;49.398;7.614;2023-10-31T04:44:56;9.80;99.90
50570;DHT22;36525;49.398;7.614;2023-10-31T04:47:23;9.70;99.90
50570;DHT22;36525;49.398;7.614;2023-10-31T04:49:50;9.70;99.90
50570;DHT22;36525;49.398;7.614;2023-10-31T04:52:17;9.60;99.90
50570;DHT22;36525;49.398;7.614;2023-10-31T04:54:44;9.70;99.90
50570;DHT22;36525;49.398;7.614;2023-10-31T04:57:12;9.60;99.90
50570;DHT22;36525;49.398;7.614;2023-10-31T04:59:39;9.60;99.90
50570;DHT22;36525;49.398;7.614;2023-10-31T05:02:05;9.60;99.90
50570;DHT22;36525;49.398;7.614;2023-10-31T05:04:32;9.70;99.90
50570;DHT22;36525;49.398;7.614;2023-10-31T05:07:00;9.60;99.90
50570;DHT22;36525;49.398;7.614;2023-10-31T05:09:26;9.70;99.90
50570;DHT22;36525;49.398;7.614;2023-10-31T05:11:54;9.60;99.90
50570;DHT22;36525;49.398;7.614;2023-10-31T05:14:21;9.70;99.90
50570;DHT22;36525;49.398;7.614;2023-10-31T05:16:48;9.70;99.90
50570;DHT22;36525;49.398;7.614;2023-10-31T05:19:16;9.70;99.90
50570;DHT22;36525;49.398;7.614;2023-10-31T05:21:43;9.70;99.90
50570;DHT22;36525;49.398;7.614;2023-10-31T05:24:10;9.60;99.90
50570;DHT22;36525;49.398;7.614;2023-10-31T05:26:38;9.70;99.90
50570;DHT22;36525;49.398;7.614;2023-10-31T05:29:06;9.70;99.90
50570;DHT22;36525;49.398;7.614;2023-10-31T05:31:34;9.70;99.90
50570;DHT22;36525;49.398;7.614;2023-10-31T05:34:01;9.60;99.90
50570;DHT22;36525;49.398;7.614;2023-10-31T05:36:30;9.70;99.90
50570;DHT22;36525;49.398;7.614;2023-10-31T05:38:57;9.70;99.90
50570;DHT22;36525;49.398;7.614;2023-10-31T05:41:24;9.70;99.90
50570;DHT22;36525;49.398;7.614;2023-10-31T05:43:51;9.70;99.90
50570;DHT22;36525;49.398;7.614;2023-10-31T05:46:18;9.70;99.90
50570;DHT22;36525;49.398;7.614;2023-10-31T05:48:46;9.70;99.90
50570;DHT22;36525;49.398;7.614;2023-10-31T05:51:14;9.60;99.90
50570;DHT22;36525;49.398;7.614;2023-10-31T05:53:43;9.70;99.90
50570;DHT22;36525;49.398;7.614;2023-10-31T05:56:15;9.60;99.90
50570;DHT22;36525;49.398;7.614;2023-10-31T05:58:42;9.70;99.90
50570;DHT22;36525;49.398;7.614;2023-10-31T06:01:10;9.70;99.90
50570;DHT22;36525;49.398;7.614;2023-10-31T06:03:37;9.60;99.90
50570;DHT22;36525;49.398;7.614;2023-10-31T06:06:04;9.60;99.90
50570;DHT22;36525;49.398;7.614;2023-10-31T06:08:32;9.60;99.90
50570;DHT22;36525;49.398;7.614;2023-10-31T06:10:59;9.60;99.90
50570;DHT22;36525;49.398;7.614;2023-10-31T06:13:27;9.70;99.90
50570;DHT22;36525;49.398;7.614;2023-10-31T06:15:54;9.60;99.90
50570;DHT22;36525;49.398;7.614;2023-10-31T06:18:27;9.60;99.90
50570;DHT22;36525;49.398;7.614;2023-10-31T06:20:54;9.60;99.90
50570;DHT22;36525;49.398;7.614;2023-10-31T06:23:22;9.70;99.90
50570;DHT22;36525;49.398;7.614;2023-10-31T06:25:49;9.70;99.90
50570;DHT22;36525;49.398;7.614;2023-10-31T06:28:16;9.70;99.90
50570;DHT22;36525;49.398;7.614;2023-10-31T06:30:43;9.70;99.90
50570;DHT22;36525;49.398;7.614;2023-10-31T06:33:10;9.70;99.90
50570;DHT22;36525;49.398;7.614;2023-10-31T06:35:37;9.70;99.90
50570;DHT22;36525;49.398;7.614;2023-10-31T06:38:04;9.70;99.90
50570;DHT22;36525;49.398;7.614;2023-10-31T06:40:31;9.70;99.90
50570;DHT22;36525;49.398;7.614;2023-10-31T06:42:59;9.70;99.90
50570;DHT22;36525;49.398;7.614;2023-10-31T06:45:26;9.70;99.90
50570;DHT22;36525;49.398;7.614;2023-10-31T06:47:53;9.70;99.90
50570;DHT22;36525;49.398;7.614;2023-10-31T06:50:20;9.70;99.90
50570;DHT22;36525;49.398;7.614;2023-10-31T06:52:47;9.70;99.90
50570;DHT22;36525;49.398;7.614;2023-10-31T06:55:14;9.80;99.90
50570;DHT22;36525;49.398;7.614;2023-10-31T06:57:41;9.80;99.90
50570;DHT22;36525;49.398;7.614;2023-10-31T07:00:10;9.70;99.90
50570;DHT22;36525;49.398;7.614;2023-10-31T07:02:38;9.70;99.90
50570;DHT22;36525;49.398;7.614;2023-10-31T07:05:05;9.70;99.90
50570;DHT22;36525;49.398;7.614;2023-10-31T07:07:32;9.80;99.90
50570;DHT22;36525;49.398;7.614;2023-10-31T07:09:59;9.80;99.90
50570;DHT22;36525;49.398;7.614;2023-10-31T07:12:27;9.70;99.90
50570;DHT22;36525;49.398;7.614;2023-10-31T07:14:53;9.70;99.90
50570;DHT22;36525;49.398;7.614;2023-10-31T07:17:20;9.80;99.90
50570;DHT22;36525;49.398;7.614;2023-10-31T07:19:47;9.70;99.90
50570;DHT22;36525;49.398;7.614;2023-10-31T07:22:14;9.80;99.90
50570;DHT22;36525;49.398;7.614;2023-10-31T07:24:41;9.70;99.90
50570;DHT22;36525;49.398;7.614;2023-10-31T07:27:12;9.80;99.90
50570;DHT22;36525;49.398;7.614;2023-10-31T07:29:39;9.70;99.90
50570;DHT22;36525;49.398;7.614;2023-10-31T07:32:08;9.70;99.90
50570;DHT22;36525;49.398;7.614;2023-10-31T07:34:39;9.60;99.90
50570;DHT22;36525;49.398;7.614;2023-10-31T07:37:07;9.60;99.90
50570;DHT22;36525;49.398;7.614;2023-10-31T07:39:34;9.60;99.90
50570;DHT22;36525;49.398;7.614;2023-10-31T07:42:01;9.60;99.90
50570;DHT22;36525;49.398;7.614;2023-10-31T07:44:28;9.70;99.90
50570;DHT22;36525;49.398;7.614;2023-10-31T07:46:55;9.70;99.90
50570;DHT22;36525;49.398;7.614;2023-10-31T07:49:22;9.70;99.90
50570;DHT22;36525;49.398;7.614;2023-10-31T07:51:49;9.70;99.90
50570;DHT22;36525;49.398;7.614;2023-10-31T07:54:16;9.70;99.90
50570;DHT22;36525;49.398;7.614;2023-10-31T07:56:43;9.70;99.90
50570;DHT22;36525;49.398;7.614;2023-10-31T07:59:10;9.70;99.90
50570;DHT22;36525;49.398;7.614;2023-10-31T08:01:37;9.70;99.90
50570;DHT22;36525;49.398;7.614;2023-10-31T08:04:05;9.70;99.90
50570;DHT22;36525;49.398;7.614;2023-10-31T08:06:32;9.70;99.90
50570;DHT22;36525;49.398;7.614;2023-10-31T08:08:59;9.80;99.90
50570;DHT22;36525;49.398;7.614;2023-10-31T08:11:26;9.80;99.90
50570;DHT22;36525;49.398;7.614;2023-10-31T08:13:53;9.80;99.90
50570;DHT22;36525;49.398;7.614;2023-10-31T08:16:21;9.80;99.90
50570;DHT22;36525;49.398;7.614;2023-10-31T08:18:48;9.90;99.90
50570;DHT22;36525;49.398;7.614;2023-10-31T08:21:15;9.90;99.90
50570;DHT22;36525;49.398;7.614;2023-10-31T08:23:43;10.00;99.90
50570;DHT22;36525;49.398;7.614;2023-10-31T08:26:12;10.00;99.90
50570;DHT22;36525;49.398;7.614;2023-10-31T08:28:40;10.10;99.90
50570;DHT22;36525;49.398;7.614;2023-10-31T08:31:07;10.20;99.90
50570;DHT22;36525;49.398;7.614;2023-10-31T08:33:34;10.10;99.90
50570;DHT22;36525;49.398;7.614;2023-10-31T08:36:01;10.20;99.90
50570;DHT22;36525;49.398;7.614;2023-10-31T08:38:28;10.20;99.90
50570;DHT22;36525;49.398;7.614;2023-10-31T08:40:58;10.20;99.90
50570;DHT22;36525;49.398;7.614;2023-10-31T08:43:25;10.30;99.90
50570;DHT22;36525;49.398;7.614;2023-10-31T08:45:53;10.40;99.90
50570;DHT22;36525;49.398;7.614;2023-10-31T08:48:20;10.40;99.90
50570;DHT22;36525;49.398;7.614;2023-10-31T08:50:48;10.30;99.90
50570;DHT22;36525;49.398;7.614;2023-10-31T08:53:15;10.30;99.90
50570;DHT22;36525;49.398;7.614;2023-10-31T08:55:46;10.40;99.90
50570;DHT22;36525;49.398;7.614;2023-10-31T08:58:13;10.30;99.90
50570;DHT22;36525;49.398;7.614;2023-10-31T09:00:40;10.40;99.90
50570;DHT22;36525;49.398;7.614;2023-10-31T09:03:08;10.50;99.90
50570;DHT22;36525;49.398;7.614;2023-10-31T09:05:35;10.40;99.90
50570;DHT22;36525;49.398;7.614;2023-10-31T09:08:02;10.60;99.90
50570;DHT22;36525;49.398;7.614;2023-10-31T09:10:30;10.80;99.90
50570;DHT22;36525;49.398;7.614;2023-10-31T09:12:57;10.90;99.90
50570;DHT22;36525;49.398;7.614;2023-10-31T09:15:23;10.90;99.90
50570;DHT22;36525;49.398;7.614;2023-10-31T09:17:50;11.00;99.90
50570;DHT22;36525;49.398;7.614;2023-10-31T09:20:17;10.80;99.90
50570;DHT22;36525;49.398;7.614;2023-10-31T09:22:45;10.90;99.90
50570;DHT22;36525;49.398;7.614;2023-10-31T09:25:11;10.90;99.90
50570;DHT22;36525;49.398;7.614;2023-10-31T09:27:41;11.10;99.90
50570;DHT22;36525;49.398;7.614;2023-10-31T09:30:08;10.90;99.90
50570;DHT22;36525;49.398;7.614;2023-10-31T09:32:36;10.80;99.90
50570;DHT22;36525;49.398;7.614;2023-10-31T09:35:03;10.80;99.90
50570;DHT22;36525;49.398;7.614;2023-10-31T09:37:31;10.80;99.90
50570;DHT22;36525;49.398;7.614;2023-10-31T09:39:58;10.70;99.90
50570;DHT22;36525;49.398;7.614;2023-10-31T09:42:24;10.80;99.90
50570;DHT22;36525;49.398;7.614;2023-10-31T09:44:52;10.90;99.90
50570;DHT22;36525;49.398;7.614;2023-10-31T09:47:19;11.00;99.90
50570;DHT22;36525;49.398;7.614;2023-10-31T09:49:49;11.10;99.90
50570;DHT22;36525;49.398;7.614;2023-10-31T09:52:17;11.40;99.90
50570;DHT22;36525;49.398;7.614;2023-10-31T09:54:47;11.60;99.90
50570;DHT22;36525;49.398;7.614;2023-10-31T09:57:15;11.70;99.90
50570;DHT22;36525;49.398;7.614;2023-10-31T09:59:44;11.60;99.90
50570;DHT22;36525;49.398;7.614;2023-10-31T10:02:11;11.50;99.90
50570;DHT22;36525;49.398;7.614;2023-10-31T10:04:38;11.70;99.90
50570;DHT22;36525;49.398;7.614;2023-10-31T10:07:06;11.70;99.90
50570;DHT22;36525;49.398;7.614;2023-10-31T10:09:33;11.50;99.90
50570;DHT22;36525;49.398;7.614;2023-10-31T10:12:00;11.40;99.90
50570;DHT22;36525;49.398;7.614;2023-10-31T10:14:28;11.30;99.90
50570;DHT22;36525;49.398;7.614;2023-10-31T10:16:55;11.40;99.90
50570;DHT22;36525;49.398;7.614;2023-10-31T10:19:24;11.50;99.90
50570;DHT22;36525;49.398;7.614;2023-10-31T10:21:53;11.40;99.90
50570;DHT22;36525;49.398;7.614;2023-10-31T10:24:21;11.60;99.90
50570;DHT22;36525;49.398;7.614;2023-10-31T10:26:49;11.50;99.90
50570;DHT22;36525;49.398;7.614;2023-10-31T10:29:16;11.40;99.90
50570;DHT22;36525;49.398;7.614;2023-10-31T10:31:43;11.50;99.90
50570;DHT22;36525;49.398;7.614;2023-10-31T10:34:14;11.50;99.90
50570;DHT22;36525;49.398;7.614;2023-10-31T10:36:44;11.30;99.90
50570;DHT22;36525;49.398;7.614;2023-10-31T10:39:14;11.40;99.90
50570;DHT22;36525;49.398;7.614;2023-10-31T10:41:51;11.20;99.90
50570;DHT22;36525;49.398;7.614;2023-10-31T10:47:03;11.10;99.90
50570;DHT22;36525;49.398;7.614;2023-10-31T10:49:34;11.00;99.90
50570;DHT22;36525;49.398;7.614;2023-10-31T10:52:13;11.10;99.90
50570;DHT22;36525;49.398;7.614;2023-10-31T10:54:52;11.20;99.90
50570;DHT22;36525;49.398;7.614;2023-10-31T10:57:32;11.30;99.90
50570;DHT22;36525;49.398;7.614;2023-10-31T11:00:21;11.50;99.90
50570;DHT22;36525;49.398;7.614;2023-10-31T11:02:52;11.40;99.90
50570;DHT22;36525;49.398;7.614;2023-10-31T11:05:20;11.40;99.90
50570;DHT22;36525;49.398;7.614;2023-10-31T11:07:47;11.60;99.90
50570;DHT22;36525;49.398;7.614;2023-10-31T11:10:15;11.70;99.90
50570;DHT22;36525;49.398;7.614;2023-10-31T11:12:44;11.70;99.90
50570;DHT22;36525;49.398;7.614;2023-10-31T11:15:12;11.70;99.90
50570;DHT22;36525;49.398;7.614;2023-10-31T11:17:44;11.70;99.90
50570;DHT22;36525;49.398;7.614;2023-10-31T11:20:13;11.60;99.90
50570;DHT22;36525;49.398;7.614;2023-10-31T11:22:44;11.60;99.90
50570;DHT22;36525;49.398;7.614;2023-10-31T11:25:13;11.50;99.90
50570;DHT22;36525;49.398;7.614;2023-10-31T11:27:56;11.40;99.90
50570;DHT22;36525;49.398;7.614;2023-10-31T11:32:51;11.40;99.90
50570;DHT22;36525;49.398;7.614;2023-10-31T11:35:19;11.30;99.90
50570;DHT22;36525;49.398;7.614;2023-10-31T11:37:49;11.40;99.90
50570;DHT22;36525;49.398;7.614;2023-10-31T11:40:27;11.50;99.90
50570;DHT22;36525;49.398;7.614;2023-10-31T11:42:58;11.70;99.90
50570;DHT22;36525;49.398;7.614;2023-10-31T11:45:30;11.90;99.90
50570;DHT22;36525;49.398;7.614;2023-10-31T11:48:00;12.00;99.90
50570;DHT22;36525;49.398;7.614;2023-10-31T11:50:34;12.10;99.90
50570;DHT22;36525;49.398;7.614;2023-10-31T11:55:28;12.30;99.90
50570;DHT22;36525;49.398;7.614;2023-10-31T11:57:55;12.40;99.90
50570;DHT22;36525;49.398;7.614;2023-10-31T12:00:23;12.50;99.90
50570;DHT22;36525;49.398;7.614;2023-10-31T12:03:00;12.60;99.90
50570;DHT22;36525;49.398;7.614;2023-10-31T12:05:28;12.70;99.90
50570;DHT22;36525;49.398;7.614;2023-10-31T12:07:56;13.00;99.90
50570;DHT22;36525;49.398;7.614;2023-10-31T12:10:24;13.10;99.90
50570;DHT22;36525;49.398;7.614;2023-10-31T12:12:53;13.30;99.90
50570;DHT22;36525;49.398;7.614;2023-10-31T12:15:20;13.60;99.90
50570;DHT22;36525;49.398;7.614;2023-10-31T12:17:48;13.60;99.90
50570;DHT22;36525;49.398;7.614;2023-10-31T12:20:15;13.60;99.90
50570;DHT22;36525;49.398;7.614;2023-10-31T12:22:43;13.30;99.90
50570;DHT22;36525;49.398;7.614;2023-10-31T12:25:10;13.40;99.90
50570;DHT22;36525;49.398;7.614;2023-10-31T12:27:48;13.30;99.90
50570;DHT22;36525;49.398;7.614;2023-10-31T12:30:16;13.50;99.90
50570;DHT22;36525;49.398;7.614;2023-10-31T12:32:45;13.40;99.90
50570;DHT22;36525;49.398;7.614;2023-10-31T12:35:13;13.30;99.90
50570;DHT22;36525;49.398;7.614;2023-10-31T12:37:45;13.20;99.90
50570;DHT22;36525;49.398;7.614;2023-10-31T12:40:13;13.00;99.90
50570;DHT22;36525;49.398;7.614;2023-10-31T12:42:45;12.80;99.90
50570;DHT22;36525;49.398;7.614;2023-10-31T12:45:13;12.80;99.90
50570;DHT22;36525;49.398;7.614;2023-10-31T12:47:42;13.00;99.90
50570;DHT22;36525;49.398;7.614;2023-10-31T12:50:13;13.20;99.90
50570;DHT22;36525;49.398;7.614;2023-10-31T12:52:51;13.30;99.90
50570;DHT22;36525;49.398;7.614;2023-10-31T12:55:19;13.10;99.90
50570;DHT22;36525;49.398;7.614;2023-10-31T12:57:51;12.90;99.90
50570;DHT22;36525;49.398;7.614;2023-10-31T13:00:19;12.90;99.90
50570;DHT22;36525;49.398;7.614;2023-10-31T13:02:58;12.80;99.90
50570;DHT22;36525;49.398;7.614;2023-10-31T13:05:27;13.10;99.90
50570;DHT22;36525;49.398;7.614;2023-10-31T13:07:55;13.10;99.90
50570;DHT22;36525;49.398;7.614;2023-10-31T13:10:24;13.20;99.90
50570;DHT22;36525;49.398;7.614;2023-10-31T13:12:51;13.10;99.90
50570;DHT22;36525;49.398;7.614;2023-10-31T13:15:23;12.90;99.90
50570;DHT22;36525;49.398;7.614;2023-10-31T13:17:50;13.30;99.90
50570;DHT22;36525;49.398;7.614;2023-10-31T13:20:19;13.50;99.90
50570;DHT22;36525;49.398;7.614;2023-10-31T13:22:47;13.80;99.90
50570;DHT22;36525;49.398;7.614;2023-10-31T13:25:15;14.20;99.90
50570;DHT22;36525;49.398;7.614;2023-10-31T13:27:43;14.60;99.90
50570;DHT22;36525;49.398;7.614;2023-10-31T13:30:11;14.70;99.90
50570;DHT22;36525;49.398;7.614;2023-10-31T13:32:42;14.90;99.90
50570;DHT22;36525;49.398;7.614;2023-10-31T13:35:09;15.20;99.90
50570;DHT22;36525;49.398;7.614;2023-10-31T13:37:37;15.50;99.90
50570;DHT22;36525;49.398;7.614;2023-10-31T13:40:04;15.10;99.90
50570;DHT22;36525;49.398;7.614;2023-10-31T13:42:32;14.90;99.90
50570;DHT22;36525;49.398;7.614;2023-10-31T13:44:59;15.20;99.90
50570;DHT22;36525;49.398;7.614;2023-10-31T13:47:28;15.60;99.90
50570;DHT22;36525;49.398;7.614;2023-10-31T13:49:56;16.20;99.90
50570;DHT22;36525;49.398;7.614;2023-10-31T13:52:23;16.80;99.90
50570;DHT22;36525;49.398;7.614;2023-10-31T13:54:50;16.20;99.90
50570;DHT22;36525;49.398;7.614;2023-10-31T13:57:17;16.30;99.90
50570;DHT22;36525;49.398;7.614;2023-10-31T13:59:44;15.80;99.90
50570;DHT22;36525;49.398;7.614;2023-10-31T14:02:11;15.60;99.90
50570;DHT22;36525;49.398;7.614;2023-10-31T14:04:38;15.20;99.90
50570;DHT22;36525;49.398;7.614;2023-10-31T14:09:32;14.10;99.90
50570;DHT22;36525;49.398;7.614;2023-10-31T14:12:00;13.80;99.90
50570;DHT22;36525;49.398;7.614;2023-10-31T14:14:27;13.60;99.90
50570;DHT22;36525;49.398;7.614;2023-10-31T14:16:54;13.70;99.90
50570;DHT22;36525;49.398;7.614;2023-10-31T14:19:21;13.60;99.90
50570;DHT22;36525;49.398;7.614;2023-10-31T14:21:48;13.40;99.90
50570;DHT22;36525;49.398;7.614;2023-10-31T14:24:19;13.50;99.90
50570;DHT22;36525;49.398;7.614;2023-10-31T14:26:45;13.70;99.90
50570;DHT22;36525;49.398;7.614;2023-10-31T14:29:13;13.80;99.90
50570;DHT22;36525;49.398;7.614;2023-10-31T14:31:40;13.70;99.90
50570;DHT22;36525;49.398;7.614;2023-10-31T14:34:11;13.60;99.90
50570;DHT22;36525;49.398;7.614;2023-10-31T14:36:47;13.60;99.90
50570;DHT22;36525;49.398;7.614;2023-10-31T14:39:17;13.50;99.90
50570;DHT22;36525;49.398;7.614;2023-10-31T14:41:44;13.40;99.90
50570;DHT22;36525;49.398;7.614;2023-10-31T14:44:11;13.50;99.90
50570;DHT22;36525;49.398;7.614;2023-10-31T14:46:38;13.30;99.90
50570;DHT22;36525;49.398;7.614;2023-10-31T14:49:10;13.20;99.90
50570;DHT22;36525;49.398;7.614;2023-10-31T14:51:37;13.20;99.90
50570;DHT22;36525;49.398;7.614;2023-10-31T14:54:04;13.20;99.90
50570;DHT22;36525;49.398;7.614;2023-10-31T14:56:31;13.10;99.90
50570;DHT22;36525;49.398;7.614;2023-10-31T14:58:58;13.00;99.90
50570;DHT22;36525;49.398;7.614;2023-10-31T15:01:25;12.70;99.90
50570;DHT22;36525;49.398;7.614;2023-10-31T15:03:52;12.50;99.90
50570;DHT22;36525;49.398;7.614;2023-10-31T15:06:22;12.30;99.90
50570;DHT22;36525;49.398;7.614;2023-10-31T15:08:52;12.10;99.90
50570;DHT22;36525;49.398;7.614;2023-10-31T15:11:19;12.00;99.90
50570;DHT22;36525;49.398;7.614;2023-10-31T15:13:49;11.90;99.90
50570;DHT22;36525;49.398;7.614;2023-10-31T15:16:16;11.80;99.90
50570;DHT22;36525;49.398;7.614;2023-10-31T15:18:43;11.80;99.90
50570;DHT22;36525;49.398;7.614;2023-10-31T15:21:11;11.90;99.90
50570;DHT22;36525;49.398;7.614;2023-10-31T15:23:38;11.80;99.90
50570;DHT22;36525;49.398;7.614;2023-10-31T15:26:05;11.70;99.90
50570;DHT22;36525;49.398;7.614;2023-10-31T15:28:39;11.70;99.90
50570;DHT22;36525;49.398;7.614;2023-10-31T15:31:09;11.70;99.90
50570;DHT22;36525;49.398;7.614;2023-10-31T15:33:37;11.60;99.90
50570;DHT22;36525;49.398;7.614;2023-10-31T15:36:09;11.70;99.90
50570;DHT22;36525;49.398;7.614;2023-10-31T15:38:37;11.70;99.90
50570;DHT22;36525;49.398;7.614;2023-10-31T15:41:07;11.70;99.90
50570;DHT22;36525;49.398;7.614;2023-10-31T15:43:43;11.60;99.90
50570;DHT22;36525;49.398;7.614;2023-10-31T15:46:11;11.50;99.90
50570;DHT22;36525;49.398;7.614;2023-10-31T15:48:38;11.50;99.90
50570;DHT22;36525;49.398;7.614;2023-10-31T15:51:05;11.40;99.90
50570;DHT22;36525;49.398;7.614;2023-10-31T15:53:32;11.40;99.90